17h02 EDT


 

Suivi/Infos de l'aéroport


-ou-


 

Suivi des vols en temps réel9Y-TTC ✈ 01-05-2013 ✈ TTCP / TAB - TTPP / POS

Thumbnail
9Y-TTC / BWA1541
Unknown Owner · Trinidad & Tobago
Crown Point ( – info)
Scarborough, Tobago TT
Piarco Int'l ( – info)
Port-d'Espagne TT
Prévu: 21h45 AST
Prévu: 21h50 AST
Durée: 18 minutes
mercredi, 1 mai 2013
Statut Arrivé il y a plus d'un an. (journal de vol & graphique)
Avion Aerospatiale ATR-42-300 (bi-turbopropulseur) (AT43 – photos)
Vitesse Plan de vol: 532 kts (graphique)
Distance En ligne droite 83 km
Une partie au moins de ce vol se déroule hors de la zone de services primaire de FlightAware. Pour en savoir plus sur la couverture et la zone de services de FlightAware.
JOURNAL DE L'ACTIVITE
Vous voulez une recherche complète sur l'historique de 9Y-TTC depuis 1998? Achetez maintenant. Recevez-le dans l'heure.
Date Avion Provenance Destination Départ Arrivée Durée
23-09-2014 AT43George F. L. Charles ()Piarco Int'l () 15h11 AST 16h10 AST 0:59
23-09-2014 AT43Piarco Int'l ()George F. L. Charles () 13h46 AST 14h42 AST 0:55
23-09-2014 AT43Crown Point ()Piarco Int'l () 10h11 AST 10h26 AST 0:15
23-09-2014 AT43Piarco Int'l ()Crown Point () 09h19 AST 09h34 AST 0:14
23-09-2014 AT43Int'l Grantley-Adams ()Piarco Int'l () 07h18 AST 08h09 AST 0:51
23-09-2014 AT43Piarco Int'l ()Int'l Grantley-Adams () 05h55 AST 06h42 AST 0:47
22-09-2014 AT43Int'l Grantley-Adams ()Piarco Int'l () 20h56 AST 21h50 AST 0:53
22-09-2014 AT43Piarco Int'l ()Int'l Grantley-Adams () 19h33 AST 20h25 AST 0:51
22-09-2014 AT43Crown Point ()Piarco Int'l () 16h31 AST 16h50 AST 0:19
22-09-2014 AT43Piarco Int'l ()Crown Point () 15h43 AST 15h58 AST 0:14
22-09-2014 AT43Crown Point ()Piarco Int'l () 14h43 AST 15h03 AST 0:20
22-09-2014 AT43Piarco Int'l ()Crown Point () 13h56 AST 14h10 AST 0:13
22-09-2014 AT43Crown Point ()Piarco Int'l () 12h36 AST 12h57 AST 0:21
22-09-2014 AT43Piarco Int'l ()Crown Point () 11h38 AST 11h54 AST 0:15
22-09-2014 AT43Piarco Int'l ()Point Salines Int'l () 08h32 AST 09h07 AST 0:34
21-09-2014 AT43Int'l Grantley-Adams ()Piarco Int'l () 22h04 AST 22h54 AST 0:49
21-09-2014 AT43Piarco Int'l ()Int'l Grantley-Adams () 20h37 AST 21h23 AST 0:46
21-09-2014 AT43Crown Point ()Piarco Int'l () 16h34 AST 16h52 AST 0:18
21-09-2014 AT43Piarco Int'l ()Crown Point () 15h40 AST 15h56 AST 0:16
21-09-2014 AT43Crown Point ()Piarco Int'l () 14h33 AST 14h53 AST 0:20
21-09-2014 AT43Piarco Int'l ()Crown Point () 13h45 AST 13h58 AST 0:12
21-09-2014 AT43Crown Point ()Piarco Int'l () 01h23 AST 02h05 AST (?) 0:42
21-09-2014 AT43Piarco Int'l ()Crown Point () 00h36 AST 00h53 AST 0:17
20-09-2014 AT43Crown Point ()Piarco Int'l () 23h39 AST 23h55 AST 0:16
20-09-2014 AT43Piarco Int'l ()Crown Point () 22h44 AST 23h01 AST 0:17
20-09-2014 AT43Crown Point ()Piarco Int'l () 21h39 AST 21h55 AST 0:16
20-09-2014 AT43Piarco Int'l ()Crown Point () 20h38 AST 20h55 AST 0:17
20-09-2014 AT43Crown Point ()Piarco Int'l () 19h23 AST 19h38 AST 0:15
20-09-2014 AT43Piarco Int'l ()Crown Point () 18h27 AST 18h41 AST 0:13
20-09-2014 AT43Crown Point ()Piarco Int'l () 17h25 AST 17h43 AST 0:18
20-09-2014 AT43Piarco Int'l ()Crown Point () 16h36 AST 16h50 AST 0:13
20-09-2014 AT43Crown Point ()Piarco Int'l () 15h37 AST 15h54 AST 0:17
20-09-2014 AT43Piarco Int'l ()Crown Point () 14h39 AST 14h52 AST 0:12
20-09-2014 AT43Crown Point ()Piarco Int'l () 13h15 AST 13h35 AST 0:20
20-09-2014 AT43Piarco Int'l ()Crown Point () 12h15 AST 12h29 AST 0:13
20-09-2014 AT43Crown Point ()Piarco Int'l () 11h04 AST 11h22 AST 0:18
20-09-2014 AT43Piarco Int'l ()Crown Point () 10h20 AST 10h36 AST 0:16
20-09-2014 AT43Crown Point ()Piarco Int'l () 09h11 AST 09h30 AST 0:19
20-09-2014 AT43Piarco Int'l ()Crown Point () 08h23 AST 08h37 AST 0:13
20-09-2014 AT43Crown Point ()Piarco Int'l () 07h08 AST 07h25 AST 0:17
20-09-2014 AT43Piarco Int'l ()Crown Point () 06h22 AST 06h36 AST 0:13
19-09-2014 AT43Crown Point ()Piarco Int'l () 20h35 AST 20h52 AST 0:17
19-09-2014 AT43Piarco Int'l ()Crown Point () 19h48 AST 20h04 AST 0:16
19-09-2014 AT43Crown Point ()Piarco Int'l () 18h55 AST 19h13 AST 0:18
19-09-2014 AT43Piarco Int'l ()Crown Point () 18h01 AST 18h22 AST 0:21
19-09-2014 AT43George F. L. Charles ()Piarco Int'l () 15h10 AST 16h08 AST 0:58
19-09-2014 AT43Piarco Int'l ()George F. L. Charles () 13h46 AST 14h41 AST 0:55
19-09-2014 AT43Crown Point ()Piarco Int'l () 12h12 AST 12h24 AST 0:11
19-09-2014 AT43Piarco Int'l ()Crown Point () 11h18 AST 11h32 AST 0:13
19-09-2014 AT43Crown Point ()Piarco Int'l () 10h14 AST 10h34 AST 0:20
19-09-2014 AT43Piarco Int'l ()Crown Point () 09h30 AST 09h49 AST 0:18
19-09-2014 AT43Point Salines Int'l ()Piarco Int'l () 08h12 AST 08h39 AST 0:27
19-09-2014 AT43Piarco Int'l ()Point Salines Int'l () 06h38 AST 07h23 AST 0:44
18-09-2014 AT43Int'l Grantley-Adams ()Piarco Int'l () 20h48 AST 21h39 AST 0:51
18-09-2014 AT43Piarco Int'l ()Int'l Grantley-Adams () 19h15 AST 20h09 AST 0:54
18-09-2014 AT43Crown Point ()Piarco Int'l () 16h28 AST 16h51 AST 0:23
18-09-2014 AT43Piarco Int'l ()Crown Point () 15h39 AST 15h55 AST 0:15
18-09-2014 AT43Crown Point ()Piarco Int'l () 14h21 AST 14h43 AST 0:22
18-09-2014 AT43Piarco Int'l ()Crown Point () 13h37 AST 13h51 AST (?) 0:14
18-09-2014 AT43Crown Point ()Piarco Int'l () 09h58 AST 10h18 AST 0:20
18-09-2014 AT43Int'l Grantley-Adams ()Piarco Int'l () 07h21 AST 08h13 AST 0:52
18-09-2014 AT43Piarco Int'l ()Int'l Grantley-Adams () 05h51 AST 06h43 AST 0:52
17-09-2014 AT43Crown Point ()Piarco Int'l () 19h26 AST 19h45 AST 0:19
17-09-2014 AT43Piarco Int'l ()Crown Point () 18h24 AST 18h39 AST 0:14
17-09-2014 AT43Crown Point ()Piarco Int'l () 17h15 AST 17h33 AST 0:18
17-09-2014 AT43Piarco Int'l ()Crown Point () 16h24 AST 16h40 AST 0:15
17-09-2014 AT43Crown Point ()Piarco Int'l () 15h20 AST 15h37 AST 0:17
17-09-2014 AT43Piarco Int'l ()Crown Point () 14h29 AST 14h46 AST 0:17
17-09-2014 AT43Crown Point ()Piarco Int'l () 11h08 AST 11h27 AST 0:19
17-09-2014 AT43Piarco Int'l ()Crown Point () 10h13 AST 10h21 AST 0:07
17-09-2014 AT43Crown Point ()Piarco Int'l () 09h05 AST 09h24 AST 0:19
17-09-2014 AT43Piarco Int'l ()Crown Point () 08h08 AST 08h34 AST 0:26
17-09-2014 AT43Crown Point ()Piarco Int'l () 07h15 AST 07h33 AST 0:18
17-09-2014 AT43Piarco Int'l ()Crown Point () 06h27 AST 06h44 AST 0:17
16-09-2014 AT43Crown Point ()Piarco Int'l () 01h24 AST 02h05 AST (?) 0:41
16-09-2014 AT43Piarco Int'l ()Crown Point () 00h18 AST 00h32 AST (+1) Inconnu
15-09-2014 AT43Crown Point ()Piarco Int'l () 23h23 AST 00h05 AST (+1) (?) 0:42
15-09-2014 AT43Piarco Int'l ()Crown Point () 22h31 AST 22h44 AST (+1) Inconnu
15-09-2014 AT43Crown Point ()Piarco Int'l () 21h37 AST 21h53 AST 0:16
15-09-2014 AT43Piarco Int'l ()Crown Point () 20h37 AST 20h54 AST 0:16
15-09-2014 AT43Crown Point ()Piarco Int'l () 19h31 AST 19h44 AST 0:13
15-09-2014 AT43Piarco Int'l ()Crown Point () 18h26 AST 18h41 AST 0:14
15-09-2014 AT43Crown Point ()Piarco Int'l () 17h26 AST 17h38 AST 0:11
15-09-2014 AT43Piarco Int'l ()Crown Point () 16h23 AST 16h42 AST 0:19
15-09-2014 AT43Crown Point ()Piarco Int'l () 15h37 AST 15h47 AST 0:09
15-09-2014 AT43Piarco Int'l ()Crown Point () 14h41 AST 14h56 AST 0:14
15-09-2014 AT43Crown Point ()Piarco Int'l () 13h05 AST 13h22 AST 0:17
15-09-2014 AT43Piarco Int'l ()Crown Point () 12h18 AST 12h33 AST 0:14
15-09-2014 AT43Int'l Maiquetía ~ Simón Bolívar ()Piarco Int'l () 10h15 VET 11h14 AST 0:29
15-09-2014 AT43Piarco Int'l ()Int'l Maiquetía ~ Simón Bolívar () 07h15 AST 08h20 VET 1:35
13-09-2014 AT43Int'l Grantley-Adams ()Piarco Int'l () 20h52 AST 21h43 AST 0:51
13-09-2014 AT43Piarco Int'l ()Int'l Grantley-Adams () 19h26 AST 20h17 AST 0:51
13-09-2014 AT43Crown Point ()Piarco Int'l () 17h17 AST 17h35 AST 0:18
13-09-2014 AT43Piarco Int'l ()Crown Point () 16h28 AST 16h44 AST 0:16
13-09-2014 AT43Crown Point ()Piarco Int'l () 15h32 AST 15h53 AST 0:21
13-09-2014 AT43Piarco Int'l ()Crown Point () 13h32 AST 13h49 AST 0:17
13-09-2014 AT43Crown Point ()Piarco Int'l () 12h07 AST 12h25 AST 0:18
13-09-2014 AT43Piarco Int'l ()Crown Point () 11h12 AST 11h35 AST 0:23
13-09-2014 AT43Crown Point ()Piarco Int'l () 10h03 AST 10h21 AST 0:18
Les membres inscrits (l'inscription est gratuite et facile!) voient 4 months d'historique. S'inscrire